Time;durP1;ratioP1;P1;durP2;ratioP2;P2;SDS_P1;SDS_P2;PMS_P1;PMS_P2;Temp;Humidity;BMP_temperature;BMP_pressure;BME280_temperature;BME280_humidity;BME280_pressure;Samples;Min_cycle;Max_cycle;Signal;HPM_P1;HPM_P2
2023/10/06 00:02:30;;;;;;;14.90;8.80;;;;;;;7.04;100.00;100681.73;106006;1255;71405;-67
2023/10/06 00:04:58;;;;;;;14.80;9.40;;;;;;;7.00;100.00;100683.31;108147;1253;60176;-63
2023/10/06 00:07:26;;;;;;;14.10;9.80;;;;;;;6.98;100.00;100675.39;105623;1254;59700;-64
2023/10/06 00:09:54;;;;;;;18.50;10.90;;;;;;;6.97;100.00;100677.55;105680;1256;73534;-63
2023/10/06 00:12:25;;;;;;;15.40;9.90;;;;;;;6.96;100.00;100676.42;106010;1257;65763;-64
2023/10/06 00:14:55;;;;;;;;;;;;;;;6.94;100.00;100675.78;106812;1253;72609;-63
2023/10/06 00:17:28;;;;;;;15.30;9.90;;;;;;;6.91;100.00;100670.21;105769;1257;60185;-63
2023/10/06 00:19:59;;;;;;;17.90;11.10;;;;;;;6.90;100.00;100664.98;106655;1252;60506;-65
2023/10/06 00:22:29;;;;;;;21.10;12.40;;;;;;;6.90;100.00;100660.98;105722;1253;73407;-64
2023/10/06 00:24:59;;;;;;;20.90;12.60;;;;;;;6.91;100.00;100661.63;105879;1256;66854;-63
2023/10/06 00:27:30;;;;;;;18.50;11.00;;;;;;;6.92;100.00;100659.05;105790;1253;71064;-63
2023/10/06 00:29:59;;;;;;;15.90;9.80;;;;;;;6.95;100.00;100660.05;105559;1259;61594;-64
2023/10/06 00:32:27;;;;;;;17.20;10.10;;;;;;;6.96;100.00;100655.73;105563;1253;60015;-67
2023/10/06 00:35:11;;;;;;;15.70;9.10;;;;;;;6.98;100.00;100655.37;105315;1257;71236;-65
2023/10/06 00:37:39;;;;;;;16.00;9.00;;;;;;;7.01;100.00;100653.88;105040;1256;66300;-64
2023/10/06 00:40:19;;;;;;;12.00;7.90;;;;;;;7.04;100.00;100653.73;105202;1254;72726;-63
2023/10/06 00:42:56;;;;;;;18.00;9.10;;;;;;;7.09;100.00;100649.66;105203;1254;61787;-65
2023/10/06 00:45:24;;;;;;;11.30;7.70;;;;;;;7.12;100.00;100647.98;105740;1254;59735;-64
2023/10/06 00:47:56;;;;;;;11.80;7.60;;;;;;;7.15;100.00;100647.20;105479;1253;71926;-64
2023/10/06 01:02:09;;;;;;;11.10;7.00;;;;;;;7.58;100.00;100640.59;102635;1286;615002;-63
2023/10/06 01:04:52;;;;;;;13.60;7.30;;;;;;;7.75;100.00;100639.63;104614;1269;133284;-64
2023/10/06 01:07:24;;;;;;;18.00;8.20;;;;;;;7.73;100.00;100634.92;104539;1273;60018;-64
2023/10/06 01:09:57;;;;;;;13.40;7.50;;;;;;;7.68;100.00;100632.70;104459;1266;71667;-62
2023/10/06 01:12:26;;;;;;;17.60;7.80;;;;;;;7.66;100.00;100627.04;104776;1269;66912;-63
2023/10/06 01:15:05;;;;;;;14.00;7.70;;;;;;;7.64;100.00;100624.25;105072;1264;73303;-63
2023/10/06 01:17:33;;;;;;;12.70;8.20;;;;;;;7.62;100.00;100621.95;104822;1268;60261;-63
2023/10/06 01:20:02;;;;;;;13.90;7.60;;;;;;;7.60;100.00;100622.49;104947;1264;59974;-64
2023/10/06 01:33:23;;;;;;;14.80;8.00;;;;;;;7.70;100.00;100617.05;102580;1283;612793;-65
2023/10/06 01:35:51;;;;;;;14.20;8.00;;;;;;;7.75;100.00;100615.17;104370;1266;110419;-63
2023/10/06 01:38:22;;;;;;;14.00;7.40;;;;;;;7.69;100.00;100614.45;105064;1263;61353;-65
2023/10/06 01:40:53;;;;;;;15.20;7.70;;;;;;;7.62;100.00;100614.08;105166;1263;70418;-63
2023/10/06 01:43:29;;;;;;;13.60;7.80;;;;;;;7.54;100.00;100612.52;105310;1260;67054;-66
2023/10/06 01:45:59;;;;;;;13.80;7.60;;;;;;;7.44;100.00;100615.54;105077;1261;71265;-64
2023/10/06 01:48:31;;;;;;;14.40;7.60;;;;;;;7.37;100.00;100615.23;105241;1263;60102;-64
2023/10/06 01:50:58;;;;;;;14.50;8.10;;;;;;;7.31;100.00;100618.05;105266;1262;59981;-66
2023/10/06 01:53:32;;;;;;;12.30;7.30;;;;;;;7.26;100.00;100618.23;104994;1264;72526;-65
2023/10/06 01:56:03;;;;;;;12.90;7.60;;;;;;;7.21;100.00;100613.71;105178;1263;65625;-66
2023/10/06 01:58:31;;;;;;;13.20;7.30;;;;;;;7.18;100.00;100609.48;105093;1264;72703;-68
2023/10/06 02:00:59;;;;;;;15.50;8.40;;;;;;;7.17;100.00;100608.37;105103;1257;60138;-70
2023/10/06 02:27:00;;;;;;;15.00;8.70;;;;;;;7.98;100.00;100582.75;101870;1294;613047;-65
2023/10/06 02:29:29;;;;;;;17.10;9.40;;;;;;;8.06;100.00;100586.73;104666;1269;125122;-66
2023/10/06 02:32:09;;;;;;;14.60;8.70;;;;;;;7.97;100.00;100588.84;104670;1265;59391;-65
2023/10/06 02:34:38;;;;;;;14.70;8.40;;;;;;;7.89;100.00;100576.59;104633;1268;72297;-65
2023/10/06 02:37:07;;;;;;;14.10;9.10;;;;;;;7.81;100.00;100569.79;104616;1270;64741;-67
2023/10/06 02:39:43;;;;;;;14.90;7.80;;;;;;;7.73;100.00;100567.45;104456;1264;73265;-65
2023/10/06 02:42:13;;;;;;;14.20;8.30;;;;;;;7.64;100.00;100569.66;105237;1267;60117;-66
2023/10/06 02:44:42;;;;;;;16.80;10.10;;;;;;;7.55;100.00;100567.09;105032;1266;60378;-67
2023/10/06 02:47:10;;;;;;;22.10;12.20;;;;;;;7.44;100.00;100566.75;104441;1266;72818;-64
2023/10/06 02:49:47;;;;;;;22.30;12.20;;;;;;;7.36;100.00;100565.38;105097;1274;67239;-65
2023/10/06 02:52:16;;;;;;;20.50;12.10;;;;;;;7.29;100.00;100563.79;104858;1266;72792;-66
2023/10/06 02:54:55;;;;;;;19.20;10.50;;;;;;;7.23;100.00;100562.35;105038;1268;60006;-66
2023/10/06 02:57:25;;;;;;;15.10;9.80;;;;;;;7.16;100.00;100563.41;104630;1267;60083;-64
2023/10/06 03:11:38;;;;;;;18.50;11.70;;;;;;;7.24;100.00;100545.51;102707;1285;612682;-65
2023/10/06 03:14:07;;;;;;;18.00;10.50;;;;;;;7.25;100.00;100540.71;104295;1275;116259;-65
2023/10/06 03:16:39;;;;;;;20.30;11.30;;;;;;;7.19;100.00;100535.83;104824;1269;59464;-64
2023/10/06 03:19:07;;;;;;;18.50;11.40;;;;;;;7.14;100.00;100533.42;105293;1269;72458;-63
2023/10/06 03:21:39;;;;;;;16.10;10.00;;;;;;;7.09;100.00;100536.24;104694;1269;66537;-65
2023/10/06 03:24:15;;;;;;;16.60;10.10;;;;;;;7.05;100.00;100531.11;104671;1269;72653;-64
2023/10/06 03:26:45;;;;;;;18.80;10.30;;;;;;;7.02;100.00;100528.52;104638;1271;59278;-65
2023/10/06 03:29:28;;;;;;;16.80;10.30;;;;;;;6.99;100.00;100532.27;104837;1271;59278;-65
2023/10/06 03:31:57;;;;;;;18.60;9.60;;;;;;;6.94;100.00;100534.45;104690;1266;71034;-64
2023/10/06 03:34:26;;;;;;;20.90;10.40;;;;;;;6.89;100.00;100532.70;104748;1266;66061;-65
2023/10/06 03:36:56;;;;;;;16.80;9.70;;;;;;;6.86;100.00;100533.54;104825;1272;73009;-66
2023/10/06 03:39:38;;;;;;;15.00;9.00;;;;;;;6.82;100.00;100532.74;104503;1280;59760;-64
2023/10/06 03:42:11;;;;;;;20.60;10.50;;;;;;;6.79;100.00;100531.68;104793;1264;59720;-64
2023/10/06 03:44:39;;;;;;;21.10;11.40;;;;;;;6.78;100.00;100527.08;105328;1263;73806;-66
2023/10/06 03:47:08;;;;;;;34.20;22.60;;;;;;;6.78;100.00;100526.06;104882;1258;65192;-63
2023/10/06 03:49:37;;;;;;;25.40;17.70;;;;;;;6.78;100.00;100525.67;104885;1259;73371;-63
2023/10/06 03:52:09;;;;;;;23.30;14.70;;;;;;;6.78;100.00;100521.34;105142;1265;60125;-64
2023/10/06 03:54:37;;;;;;;16.50;12.00;;;;;;;6.79;100.00;100519.52;105146;1262;59611;-64
2023/10/06 03:57:06;;;;;;;16.60;10.70;;;;;;;6.82;100.00;100517.40;104866;1260;71823;-63
2023/10/06 03:59:33;;;;;;;18.40;11.80;;;;;;;6.88;100.00;100509.81;104784;1263;66898;-63
2023/10/06 04:02:03;;;;;;;26.70;16.30;;;;;;;7.00;100.00;100510.18;104909;1260;71493;-64
2023/10/06 04:04:31;;;;;;;25.30;14.90;;;;;;;7.18;100.00;100507.48;104881;1266;60449;-65
2023/10/06 04:06:58;;;;;;;21.40;13.50;;;;;;;7.40;100.00;100504.97;105018;1260;60088;-63
2023/10/06 04:09:31;;;;;;;21.90;12.60;;;;;;;7.63;100.00;100505.92;105004;1263;73082;-63
2023/10/06 04:12:01;;;;;;;18.60;12.10;;;;;;;7.89;100.00;100500.95;104942;1265;66774;-64
2023/10/06 04:14:31;;;;;;;21.40;13.60;;;;;;;8.14;100.00;100497.84;104704;1261;72708;-64
2023/10/06 04:17:01;;;;;;;22.30;14.00;;;;;;;8.32;100.00;100502.92;104727;1262;61243;-64
2023/10/06 04:19:29;;;;;;;22.50;15.50;;;;;;;8.43;100.00;100500.97;104954;1265;59691;-64
2023/10/06 04:21:57;;;;;;;19.70;13.30;;;;;;;8.54;100.00;100498.33;104962;1268;72951;-64
2023/10/06 04:24:24;;;;;;;23.90;14.80;;;;;;;8.62;100.00;100489.33;105188;1264;66914;-65
2023/10/06 04:26:52;;;;;;;20.70;12.10;;;;;;;8.67;100.00;100488.23;105034;1262;73416;-65
2023/10/06 04:29:20;;;;;;;19.70;13.00;;;;;;;8.70;100.00;100488.12;104959;1264;59725;-64
2023/10/06 04:31:49;;;;;;;20.10;12.70;;;;;;;8.75;100.00;100484.27;104945;1261;59546;-64
2023/10/06 04:34:21;;;;;;;15.60;9.80;;;;;;;8.81;100.00;100487.29;105155;1263;71858;-65
2023/10/06 04:36:51;;;;;;;16.80;9.10;;;;;;;8.87;100.00;100490.03;104926;1263;65641;-66
2023/10/06 04:39:19;;;;;;;13.70;8.10;;;;;;;8.94;100.00;100483.20;105072;1264;72742;-63
2023/10/06 04:41:47;;;;;;;15.90;8.10;;;;;;;9.10;100.00;100481.14;104935;1265;59641;-66
2023/10/06 04:44:15;;;;;;;13.80;8.60;;;;;;;9.29;100.00;100480.67;105111;1260;60109;-64
2023/10/06 04:46:43;;;;;;;12.30;7.10;;;;;;;9.52;100.00;100474.95;104774;1258;73650;-63
2023/10/06 04:49:11;;;;;;;13.40;7.70;;;;;;;9.75;100.00;100474.10;105306;1264;66938;-64
2023/10/06 04:51:39;;;;;;;14.10;8.00;;;;;;;9.91;100.00;100468.98;105574;1265;72746;-64
2023/10/06 04:54:08;;;;;;;12.90;7.80;;;;;;;10.04;100.00;100467.94;105020;1259;61704;-64
2023/10/06 04:56:36;;;;;;;14.30;7.80;;;;;;;10.15;100.00;100466.45;105034;1260;59708;-66
2023/10/06 04:59:05;;;;;;;13.00;8.10;;;;;;;10.25;100.00;100464.29;104945;1263;72870;-68
2023/10/06 05:01:34;;;;;;;13.60;7.50;;;;;;;10.35;100.00;100458.15;105343;1260;69123;-66
2023/10/06 05:04:06;;;;;;;13.40;7.20;;;;;;;10.45;100.00;100457.64;104815;1263;73193;-65
2023/10/06 05:06:35;;;;;;;12.50;7.40;;;;;;;10.56;100.00;100451.50;105323;1264;60455;-66
2023/10/06 05:09:03;;;;;;;15.60;8.20;;;;;;;10.66;100.00;100442.73;105502;1262;60061;-65
2023/10/06 05:11:32;;;;;;;18.30;8.80;;;;;;;10.74;100.00;100441.95;105773;1260;73118;-65
2023/10/06 05:14:01;;;;;;;12.20;8.00;;;;;;;10.84;100.00;100445.32;105379;1260;66752;-67
2023/10/06 05:16:29;;;;;;;13.90;8.60;;;;;;;10.97;100.00;100448.83;105490;1262;72645;-67
